createdAt,value
2023-01-26T00:01:19.127Z,64.00
2023-01-26T00:03:46.223Z,64.00
2023-01-26T00:06:15.373Z,64.00
2023-01-26T00:08:47.301Z,64.00
2023-01-26T00:11:18.450Z,64.00
2023-01-26T00:13:45.610Z,64.00
2023-01-26T00:16:14.507Z,64.30
2023-01-26T00:18:42.201Z,64.10
2023-01-26T00:21:14.033Z,64.20
2023-01-26T00:23:41.052Z,64.20
2023-01-26T00:26:09.706Z,64.20
2023-01-26T00:28:38.156Z,64.20
2023-01-26T00:31:07.117Z,64.30
2023-01-26T00:33:34.425Z,64.40
2023-01-26T00:36:01.333Z,64.20
2023-01-26T00:38:28.184Z,64.10
2023-01-26T00:40:55.086Z,64.10
2023-01-26T00:43:21.930Z,64.30
2023-01-26T00:45:51.588Z,64.40
2023-01-26T00:48:19.934Z,64.40
2023-01-26T00:50:46.831Z,64.40
2023-01-26T00:53:13.707Z,64.40
2023-01-26T00:55:40.491Z,64.50
2023-01-26T00:58:08.443Z,65.00
2023-01-26T01:00:37.438Z,64.70
2023-01-26T01:03:05.744Z,64.60
2023-01-26T01:05:33.640Z,64.70
2023-01-26T01:08:00.531Z,64.80
2023-01-26T01:10:27.679Z,64.80
2023-01-26T01:12:56.704Z,64.60
2023-01-26T01:15:24.765Z,64.60
2023-01-26T01:17:51.916Z,64.90
2023-01-26T01:20:18.886Z,64.90
2023-01-26T01:22:46.806Z,64.80
2023-01-26T01:25:13.847Z,66.70
2023-01-26T01:27:40.644Z,64.80
2023-01-26T01:30:08.596Z,64.90
2023-01-26T01:32:42.001Z,64.80
2023-01-26T01:35:09.178Z,64.80
2023-01-26T01:37:36.886Z,64.80
2023-01-26T01:40:04.166Z,64.80
2023-01-26T01:42:33.028Z,64.80
2023-01-26T01:45:28.373Z,64.80
2023-01-26T01:48:01.927Z,64.80
2023-01-26T01:50:33.356Z,64.80
2023-01-26T01:53:00.222Z,64.80
2023-01-26T01:55:27.211Z,64.80
2023-01-26T01:58:00.156Z,64.80
2023-01-26T02:00:27.344Z,64.70
2023-01-26T02:03:21.290Z,64.60
2023-01-26T02:05:54.234Z,64.70
2023-01-26T02:08:26.499Z,64.40
2023-01-26T02:10:56.871Z,64.60
2023-01-26T02:13:25.132Z,64.70
2023-01-26T02:15:52.642Z,63.80
2023-01-26T02:18:19.657Z,64.90
2023-01-26T02:20:57.571Z,65.00
2023-01-26T02:23:32.393Z,65.20
2023-01-26T02:26:15.267Z,65.10
2023-01-26T02:28:43.932Z,65.10
2023-01-26T02:31:12.110Z,65.10
2023-01-26T02:33:39.745Z,65.00
2023-01-26T02:36:08.588Z,65.10
2023-01-26T02:38:51.213Z,65.20
2023-01-26T02:41:38.413Z,65.30
2023-01-26T02:44:08.745Z,65.20
2023-01-26T02:46:35.730Z,65.50
2023-01-26T02:49:21.686Z,65.20
2023-01-26T02:51:48.589Z,65.20
2023-01-26T02:54:36.000Z,65.00
2023-01-26T02:57:03.812Z,64.30
2023-01-26T02:59:30.605Z,65.10
2023-01-26T03:01:58.321Z,65.00
2023-01-26T03:04:25.585Z,65.10
2023-01-26T03:06:52.941Z,65.00
2023-01-26T03:09:19.766Z,65.00
2023-01-26T03:11:47.871Z,65.10
2023-01-26T03:14:16.844Z,65.20
2023-01-26T03:16:44.311Z,65.10
2023-01-26T03:19:31.926Z,65.00
2023-01-26T03:22:17.764Z,64.90
2023-01-26T03:25:03.149Z,64.90
2023-01-26T03:27:38.527Z,64.90
2023-01-26T03:30:06.257Z,65.00
2023-01-26T03:32:33.080Z,64.90
2023-01-26T03:35:01.195Z,65.00
2023-01-26T03:37:28.078Z,65.00
2023-01-26T03:40:19.761Z,64.40
2023-01-26T03:43:05.169Z,65.80
2023-01-26T03:45:50.512Z,65.10
2023-01-26T03:48:37.513Z,65.20
2023-01-26T03:51:24.212Z,65.30
2023-01-26T03:54:09.917Z,65.20
2023-01-26T03:56:36.711Z,65.10
2023-01-26T03:59:09.046Z,65.10
2023-01-26T04:01:41.141Z,65.00
2023-01-26T04:04:27.416Z,64.90
2023-01-26T04:07:13.618Z,65.00
2023-01-26T04:09:45.514Z,65.10
2023-01-26T04:12:14.099Z,65.20
2023-01-26T04:15:20.158Z,67.00
2023-01-26T04:18:06.102Z,65.20
2023-01-26T04:20:51.547Z,65.10
2023-01-26T04:23:19.955Z,65.10
2023-01-26T04:25:48.373Z,65.10
2023-01-26T04:28:15.889Z,65.10
2023-01-26T04:30:43.238Z,65.00
2023-01-26T04:33:11.129Z,65.10
2023-01-26T04:35:37.999Z,65.10
2023-01-26T04:38:04.985Z,65.10
2023-01-26T04:40:31.818Z,65.10
2023-01-26T04:42:58.772Z,65.20
2023-01-26T04:45:25.551Z,65.20
2023-01-26T04:47:53.764Z,65.20
2023-01-26T04:50:20.610Z,65.20
2023-01-26T04:52:47.974Z,65.30
2023-01-26T04:55:15.745Z,65.30
2023-01-26T04:57:43.287Z,65.30
2023-01-26T05:00:12.226Z,65.20
2023-01-26T05:02:40.636Z,65.30
2023-01-26T05:05:09.493Z,65.30
2023-01-26T05:07:36.750Z,65.30
2023-01-26T05:10:04.212Z,65.40
2023-01-26T05:12:51.221Z,65.50
2023-01-26T05:15:41.786Z,65.30
2023-01-26T05:18:13.783Z,65.50
2023-01-26T05:20:55.239Z,65.40
2023-01-26T05:23:25.907Z,65.40
2023-01-26T05:26:05.149Z,65.60
2023-01-26T05:28:41.122Z,65.90
2023-01-26T05:31:08.641Z,66.00
2023-01-26T05:33:35.714Z,66.10
2023-01-26T05:36:07.296Z,66.10
2023-01-26T05:38:34.989Z,66.10
2023-01-26T05:41:01.767Z,66.20
2023-01-26T05:43:32.324Z,66.30
2023-01-26T05:46:10.516Z,66.30
2023-01-26T05:48:40.212Z,66.30
2023-01-26T05:51:07.041Z,66.30
2023-01-26T05:53:36.192Z,66.30
2023-01-26T05:56:03.543Z,66.30
2023-01-26T05:58:33.341Z,66.30
2023-01-26T06:01:04.910Z,66.40
2023-01-26T06:03:39.784Z,66.50
2023-01-26T06:06:07.468Z,66.10
2023-01-26T06:08:41.140Z,67.40
2023-01-26T06:11:26.764Z,66.70
2023-01-26T06:14:05.411Z,66.70
2023-01-26T06:16:32.770Z,66.50
2023-01-26T06:19:00.178Z,66.50
2023-01-26T06:21:27.031Z,66.50
2023-01-26T06:23:54.399Z,66.50
2023-01-26T06:26:21.321Z,66.70
2023-01-26T06:28:48.159Z,66.30
2023-01-26T06:31:15.455Z,66.30
2023-01-26T06:33:43.213Z,67.10
2023-01-26T06:36:14.459Z,66.30
2023-01-26T06:38:47.088Z,66.30
2023-01-26T06:41:14.285Z,66.40
2023-01-26T06:43:48.146Z,66.50
2023-01-26T06:46:16.663Z,66.60
2023-01-26T06:48:45.706Z,66.50
2023-01-26T06:51:19.338Z,66.60
2023-01-26T06:53:54.668Z,66.70
2023-01-26T06:56:28.987Z,66.60
2023-01-26T06:59:00.392Z,66.60
2023-01-26T07:01:49.038Z,66.70
2023-01-26T07:04:17.059Z,66.80
2023-01-26T07:06:44.988Z,66.80
2023-01-26T07:09:11.858Z,67.00
2023-01-26T07:11:38.748Z,66.80
2023-01-26T07:14:06.312Z,66.70
2023-01-26T07:16:33.942Z,66.70
2023-01-26T07:19:01.355Z,66.70
2023-01-26T07:21:28.293Z,67.40
2023-01-26T07:23:56.145Z,67.40
2023-01-26T07:26:23.038Z,66.90
2023-01-26T07:28:49.843Z,67.00
2023-01-26T07:31:16.744Z,66.90
2023-01-26T07:33:44.112Z,67.00
2023-01-26T07:36:11.192Z,67.00
2023-01-26T07:38:38.876Z,67.10
2023-01-26T07:41:11.607Z,67.20
2023-01-26T07:43:38.718Z,67.20
2023-01-26T07:46:10.771Z,67.10
2023-01-26T07:48:37.645Z,67.20
2023-01-26T07:51:05.601Z,66.50
2023-01-26T07:53:34.217Z,67.10
2023-01-26T07:56:12.736Z,66.90
2023-01-26T07:58:40.131Z,67.60
2023-01-26T08:01:08.825Z,67.00
2023-01-26T08:03:36.127Z,67.10
2023-01-26T08:06:03.528Z,66.70
2023-01-26T08:08:30.697Z,66.70
2023-01-26T08:11:00.526Z,66.70
2023-01-26T08:13:35.282Z,66.80
2023-01-26T08:16:12.728Z,66.70
2023-01-26T08:18:41.821Z,66.80
2023-01-26T08:21:09.998Z,66.70
2023-01-26T08:23:37.096Z,66.80
2023-01-26T08:26:06.634Z,66.70
2023-01-26T08:28:33.788Z,66.50
2023-01-26T08:31:11.483Z,66.50
2023-01-26T08:33:39.677Z,66.60
2023-01-26T08:36:10.878Z,66.70
2023-01-26T08:38:37.712Z,66.70
2023-01-26T08:41:05.298Z,66.80
2023-01-26T08:43:32.159Z,66.90
2023-01-26T08:45:59.151Z,67.00
2023-01-26T08:48:26.010Z,67.30
2023-01-26T08:50:57.689Z,67.40
2023-01-26T08:53:25.003Z,67.40
2023-01-26T08:55:52.027Z,67.40
2023-01-26T08:58:20.462Z,67.40
2023-01-26T09:00:47.288Z,67.30
2023-01-26T09:03:14.267Z,67.40
2023-01-26T09:05:41.522Z,67.40
2023-01-26T09:08:09.692Z,67.40
2023-01-26T09:10:39.702Z,67.30
2023-01-26T09:13:06.568Z,67.00
2023-01-26T09:15:33.452Z,66.80
2023-01-26T09:18:01.120Z,66.70
2023-01-26T09:20:28.218Z,65.90
2023-01-26T09:22:55.058Z,66.50
2023-01-26T09:25:22.088Z,66.50
2023-01-26T09:27:48.913Z,66.30
2023-01-26T09:30:16.230Z,66.30
2023-01-26T09:32:43.537Z,66.30
2023-01-26T09:35:14.193Z,66.30
2023-01-26T09:37:43.312Z,66.30
2023-01-26T09:40:19.603Z,66.50
2023-01-26T09:43:05.469Z,66.70
2023-01-26T09:45:46.378Z,66.30
2023-01-26T09:48:36.272Z,66.40
2023-01-26T09:51:34.155Z,66.50
2023-01-26T09:54:41.757Z,66.30
2023-01-26T09:57:17.667Z,66.20
2023-01-26T10:00:09.268Z,66.30
2023-01-26T10:03:05.032Z,66.20
2023-01-26T10:05:57.993Z,66.00
2023-01-26T10:09:19.447Z,66.40
2023-01-26T10:11:54.292Z,66.20
2023-01-26T10:14:44.980Z,65.90
2023-01-26T10:17:31.233Z,65.70
2023-01-26T10:20:07.442Z,65.70
2023-01-26T10:22:50.286Z,65.80
2023-01-26T10:25:29.115Z,66.90
2023-01-26T10:27:55.888Z,65.80
2023-01-26T10:30:22.865Z,65.90
2023-01-26T10:32:52.670Z,65.80
2023-01-26T10:35:24.971Z,65.60
2023-01-26T10:37:53.182Z,65.40
2023-01-26T10:40:21.159Z,65.40
2023-01-26T10:42:59.409Z,65.40
2023-01-26T10:45:31.735Z,63.80
2023-01-26T10:48:17.939Z,65.50
2023-01-26T10:50:46.626Z,67.60
2023-01-26T10:53:19.120Z,65.50
2023-01-26T10:56:11.937Z,65.70
2023-01-26T10:58:44.913Z,65.10
2023-01-26T11:01:15.753Z,65.20
2023-01-26T11:03:56.267Z,65.10
2023-01-26T11:06:28.698Z,64.70
2023-01-26T11:09:09.682Z,64.40
2023-01-26T11:11:36.717Z,64.10
2023-01-26T11:14:18.635Z,64.40
2023-01-26T11:16:56.392Z,63.80
2023-01-26T11:19:38.630Z,63.90
2023-01-26T11:22:13.558Z,63.80
2023-01-26T11:25:38.168Z,64.10
2023-01-26T11:28:25.513Z,63.80
2023-01-26T11:31:40.101Z,63.70
2023-01-26T11:34:38.885Z,63.40
2023-01-26T11:37:43.766Z,63.40
2023-01-26T11:40:26.479Z,63.40
2023-01-26T11:43:14.470Z,63.50
2023-01-26T11:46:05.565Z,63.40
2023-01-26T11:48:50.523Z,63.20
2023-01-26T11:51:49.970Z,63.50
2023-01-26T11:55:06.257Z,63.40
2023-01-26T11:57:36.888Z,63.20
2023-01-26T12:00:28.637Z,63.50
2023-01-26T12:03:03.527Z,62.80
2023-01-26T12:05:42.427Z,63.00
2023-01-26T12:08:45.524Z,63.00
2023-01-26T12:11:25.732Z,62.90
2023-01-26T12:14:17.383Z,63.20
2023-01-26T12:17:19.036Z,62.70
2023-01-26T12:20:05.032Z,62.40
2023-01-26T12:22:34.610Z,62.90
2023-01-26T12:25:33.031Z,62.80
2023-01-26T12:28:25.306Z,62.30
2023-01-26T12:31:18.059Z,62.40
2023-01-26T12:33:46.577Z,62.40
2023-01-26T12:36:26.844Z,62.70
2023-01-26T12:39:13.919Z,62.30
2023-01-26T12:42:05.817Z,62.50
2023-01-26T12:44:43.951Z,62.80
2023-01-26T12:47:46.056Z,62.90
2023-01-26T12:50:20.643Z,62.50
2023-01-26T12:53:16.666Z,62.40
2023-01-26T12:55:49.354Z,61.80
2023-01-26T12:58:37.567Z,60.40
2023-01-26T13:01:12.369Z,61.50
2023-01-26T13:03:43.250Z,61.80
2023-01-26T13:06:10.052Z,61.80
2023-01-26T13:08:36.861Z,61.70
2023-01-26T13:11:06.865Z,61.70
2023-01-26T13:13:56.601Z,61.40
2023-01-26T13:16:23.674Z,60.90
2023-01-26T13:18:55.395Z,61.30
2023-01-26T13:21:44.687Z,61.10
2023-01-26T13:24:17.252Z,60.90
2023-01-26T13:26:51.776Z,60.90
2023-01-26T13:29:28.062Z,60.50
2023-01-26T13:31:55.707Z,60.30
2023-01-26T13:34:28.193Z,60.60
2023-01-26T13:37:05.146Z,60.60
2023-01-26T13:39:36.204Z,60.70
2023-01-26T13:42:15.000Z,60.60
2023-01-26T13:44:47.389Z,62.40
2023-01-26T13:47:26.068Z,60.70
2023-01-26T13:49:52.931Z,60.40
2023-01-26T13:52:23.935Z,60.80
2023-01-26T13:54:52.456Z,60.80
2023-01-26T13:57:25.594Z,60.80
2023-01-26T13:59:54.989Z,60.60
2023-01-26T14:02:35.630Z,60.60
2023-01-26T14:05:03.375Z,60.30
2023-01-26T14:07:38.826Z,60.50
2023-01-26T14:10:07.096Z,60.00
2023-01-26T14:12:41.284Z,60.10
2023-01-26T14:15:19.468Z,60.10
2023-01-26T14:17:52.173Z,59.80
2023-01-26T14:20:32.024Z,59.60
2023-01-26T14:23:10.251Z,59.70
2023-01-26T14:25:39.841Z,59.70
2023-01-26T14:28:12.801Z,59.90
2023-01-26T14:30:40.631Z,59.50
2023-01-26T14:33:16.103Z,59.60
2023-01-26T14:35:54.778Z,59.70
2023-01-26T14:38:21.817Z,59.80
2023-01-26T14:40:59.916Z,59.80
2023-01-26T14:43:27.813Z,59.60
2023-01-26T14:46:08.724Z,59.80
2023-01-26T14:48:55.085Z,59.60
2023-01-26T14:51:24.537Z,58.80
2023-01-26T14:53:58.626Z,59.70
2023-01-26T14:56:38.332Z,59.70
2023-01-26T14:59:07.387Z,59.60
2023-01-26T15:01:34.852Z,59.80
2023-01-26T15:04:06.532Z,60.00
2023-01-26T15:06:33.501Z,59.90
2023-01-26T15:09:27.066Z,60.00
2023-01-26T15:12:15.219Z,59.60
2023-01-26T15:14:57.018Z,59.90
2023-01-26T15:17:38.104Z,59.50
2023-01-26T15:20:23.209Z,59.60
2023-01-26T15:22:52.918Z,59.70
2023-01-26T15:25:26.009Z,59.90
2023-01-26T15:27:58.744Z,59.80
2023-01-26T15:30:35.529Z,59.80
2023-01-26T15:33:03.339Z,59.50
2023-01-26T15:35:32.584Z,59.60
2023-01-26T15:38:01.440Z,59.70
2023-01-26T15:40:28.689Z,59.60
2023-01-26T15:43:15.793Z,59.50
2023-01-26T15:45:51.953Z,59.30
2023-01-26T15:48:18.916Z,59.40
2023-01-26T15:50:48.058Z,59.50
2023-01-26T15:53:17.113Z,59.50
2023-01-26T15:55:44.871Z,59.40
2023-01-26T15:58:11.686Z,59.50
2023-01-26T16:00:39.265Z,59.60
2023-01-26T16:03:14.807Z,59.70
2023-01-26T16:05:42.183Z,59.70
2023-01-26T16:08:10.305Z,59.70
2023-01-26T16:10:40.110Z,60.10
2023-01-26T16:13:11.408Z,59.60
2023-01-26T16:15:55.212Z,59.60
2023-01-26T16:18:22.056Z,59.70
2023-01-26T16:20:50.046Z,59.80
2023-01-26T16:23:21.091Z,59.80
2023-01-26T16:25:49.266Z,59.70
2023-01-26T16:28:16.915Z,59.70
2023-01-26T16:30:45.644Z,59.70
2023-01-26T16:33:17.975Z,59.80
2023-01-26T16:35:44.792Z,59.70
2023-01-26T16:38:14.370Z,59.70
2023-01-26T16:40:43.746Z,59.80
2023-01-26T16:43:24.069Z,59.70
2023-01-26T16:45:52.829Z,59.60
2023-01-26T16:48:20.191Z,59.70
2023-01-26T16:50:50.324Z,59.80
2023-01-26T16:53:25.468Z,59.80
2023-01-26T16:55:52.857Z,59.80
2023-01-26T16:58:20.178Z,60.00
2023-01-26T17:00:47.319Z,60.00
2023-01-26T17:03:14.370Z,60.00
2023-01-26T17:05:41.729Z,60.00
2023-01-26T17:08:08.666Z,60.00
2023-01-26T17:10:35.886Z,62.50
2023-01-26T17:13:03.053Z,59.90
2023-01-26T17:15:30.022Z,59.90
2023-01-26T17:17:57.325Z,60.00
2023-01-26T17:20:24.118Z,60.00
2023-01-26T17:22:51.670Z,60.10
2023-01-26T17:25:19.540Z,60.00
2023-01-26T17:27:49.732Z,58.60
2023-01-26T17:30:18.351Z,60.00
2023-01-26T17:32:45.502Z,60.10
2023-01-26T17:35:12.837Z,60.00
2023-01-26T17:37:40.480Z,60.00
2023-01-26T17:40:09.794Z,60.00
2023-01-26T17:42:36.933Z,60.20
2023-01-26T17:45:04.796Z,60.10
2023-01-26T17:47:33.692Z,60.40
2023-01-26T17:50:01.217Z,60.50
2023-01-26T17:52:28.021Z,60.50
2023-01-26T17:54:54.849Z,60.60
2023-01-26T17:57:21.818Z,60.80
2023-01-26T17:59:48.769Z,61.00
2023-01-26T18:02:15.885Z,61.20
2023-01-26T18:04:42.927Z,61.20
2023-01-26T18:07:10.383Z,61.20
2023-01-26T18:09:37.429Z,61.40
2023-01-26T18:12:04.494Z,61.40
2023-01-26T18:14:31.309Z,61.50
2023-01-26T18:16:58.495Z,61.60
2023-01-26T18:19:25.949Z,61.80
2023-01-26T18:21:52.839Z,61.80
2023-01-26T18:24:19.769Z,61.80
2023-01-26T18:26:46.738Z,61.90
2023-01-26T18:29:14.830Z,62.00
2023-01-26T18:31:41.802Z,61.90
2023-01-26T18:34:10.325Z,61.90
2023-01-26T18:36:37.539Z,62.00
2023-01-26T18:39:06.919Z,62.20
2023-01-26T18:41:35.159Z,62.20
2023-01-26T18:44:03.738Z,62.30
2023-01-26T18:46:31.354Z,62.40
2023-01-26T18:49:02.924Z,62.50
2023-01-26T18:51:35.354Z,62.70
2023-01-26T18:54:04.264Z,63.10
2023-01-26T18:56:32.138Z,62.90
2023-01-26T18:58:59.332Z,62.80
2023-01-26T19:01:26.814Z,63.00
2023-01-26T19:03:55.577Z,62.90
2023-01-26T19:06:25.008Z,63.00
2023-01-26T19:09:01.529Z,63.00
2023-01-26T19:11:31.267Z,63.00
2023-01-26T19:13:58.890Z,63.00
2023-01-26T19:16:26.409Z,63.00
2023-01-26T19:18:54.379Z,63.10
2023-01-26T19:21:24.550Z,63.20
2023-01-26T19:23:53.237Z,63.40
2023-01-26T19:26:23.594Z,63.20
2023-01-26T19:28:51.190Z,63.60
2023-01-26T19:31:20.269Z,63.90
2023-01-26T19:33:58.868Z,63.90
2023-01-26T19:36:28.028Z,64.00
2023-01-26T19:38:55.029Z,63.90
2023-01-26T19:41:23.237Z,63.80
2023-01-26T19:43:51.543Z,63.90
2023-01-26T19:46:21.038Z,64.00
2023-01-26T19:48:48.432Z,64.00
2023-01-26T19:51:18.004Z,64.10
2023-01-26T19:53:47.374Z,64.40
2023-01-26T19:56:23.850Z,64.30
2023-01-26T19:58:52.571Z,64.40
2023-01-26T20:01:21.067Z,64.40
2023-01-26T20:03:53.156Z,64.50
2023-01-26T20:06:22.675Z,64.60
2023-01-26T20:08:50.168Z,64.50
2023-01-26T20:11:17.818Z,64.50
2023-01-26T20:13:44.602Z,64.60
2023-01-26T20:16:13.743Z,64.60
2023-01-26T20:18:40.893Z,64.60
2023-01-26T20:21:08.198Z,64.60
2023-01-26T20:23:36.642Z,64.70
2023-01-26T20:26:06.643Z,64.70
2023-01-26T20:28:33.648Z,64.80
2023-01-26T20:31:15.640Z,65.00
2023-01-26T20:33:44.278Z,65.30
2023-01-26T20:36:12.897Z,65.10
2023-01-26T20:38:39.866Z,65.20
2023-01-26T20:41:12.863Z,65.30
2023-01-26T20:43:49.458Z,65.80
2023-01-26T20:46:24.516Z,66.20
2023-01-26T20:48:51.882Z,65.40
2023-01-26T20:51:21.587Z,65.70
2023-01-26T20:53:49.842Z,65.90
2023-01-26T20:56:19.559Z,66.80
2023-01-26T20:58:46.405Z,66.00
2023-01-26T21:01:15.870Z,66.00
2023-01-26T21:03:43.625Z,66.00
2023-01-26T21:06:13.292Z,66.00
2023-01-26T21:08:40.987Z,65.90
2023-01-26T21:11:12.120Z,65.80
2023-01-26T21:13:42.510Z,66.00
2023-01-26T21:16:12.217Z,66.10
2023-01-26T21:18:39.121Z,66.10
2023-01-26T21:21:07.735Z,67.50
2023-01-26T21:23:35.077Z,66.80
2023-01-26T21:26:10.378Z,66.20
2023-01-26T21:28:37.353Z,66.20
2023-01-26T21:31:13.840Z,66.00
2023-01-26T21:33:42.980Z,66.30
2023-01-26T21:36:12.691Z,66.30
2023-01-26T21:38:41.775Z,68.50
2023-01-26T21:41:33.778Z,66.50
2023-01-26T21:44:11.538Z,66.50
2023-01-26T21:46:39.025Z,66.60
2023-01-26T21:49:06.542Z,66.40
2023-01-26T21:51:52.265Z,66.30
2023-01-26T21:54:19.294Z,66.40
2023-01-26T21:56:46.264Z,66.40
2023-01-26T21:59:15.120Z,66.20
2023-01-26T22:01:44.840Z,66.30
2023-01-26T22:04:23.519Z,66.20
2023-01-26T22:06:52.055Z,66.20
2023-01-26T22:09:19.366Z,66.20
2023-01-26T22:11:46.231Z,68.30
2023-01-26T22:14:22.340Z,66.10
2023-01-26T22:16:49.262Z,66.30
2023-01-26T22:19:16.239Z,66.40
2023-01-26T22:21:43.090Z,66.10
2023-01-26T22:24:12.373Z,66.20
2023-01-26T22:26:39.827Z,66.60
2023-01-26T22:29:07.286Z,66.30
2023-01-26T22:31:34.375Z,66.20
2023-01-26T22:34:01.403Z,67.90
2023-01-26T22:36:28.894Z,68.40
2023-01-26T22:38:56.179Z,66.30
2023-01-26T22:41:25.664Z,66.30
2023-01-26T22:43:55.212Z,66.40
2023-01-26T22:46:23.756Z,66.50
2023-01-26T22:48:51.542Z,66.40
2023-01-26T22:51:21.348Z,66.50
2023-01-26T22:53:50.375Z,66.50
2023-01-26T22:56:18.281Z,66.60
2023-01-26T22:58:57.509Z,66.60
2023-01-26T23:01:26.914Z,66.70
2023-01-26T23:03:55.561Z,66.70
2023-01-26T23:06:23.162Z,66.60
2023-01-26T23:08:50.190Z,66.60
2023-01-26T23:11:22.937Z,66.60
2023-01-26T23:13:51.368Z,66.70
2023-01-26T23:16:19.203Z,66.80
2023-01-26T23:18:46.363Z,66.90
2023-01-26T23:21:13.240Z,66.70
2023-01-26T23:23:41.122Z,66.80
2023-01-26T23:26:08.739Z,66.80
2023-01-26T23:28:38.046Z,66.80
2023-01-26T23:31:05.577Z,67.00
2023-01-26T23:33:34.717Z,67.10
2023-01-26T23:36:02.223Z,67.20
2023-01-26T23:38:29.982Z,67.20
2023-01-26T23:40:57.709Z,67.20
2023-01-26T23:43:24.824Z,67.10
2023-01-26T23:45:52.543Z,67.20
2023-01-26T23:48:19.827Z,67.10
2023-01-26T23:50:46.959Z,67.00
2023-01-26T23:53:14.684Z,67.00
2023-01-26T23:55:42.965Z,67.00
2023-01-26T23:58:11.287Z,67.00
